Accueil
METAR-TAF:

METAR-TAF

Aéroports :

Aéroport de Karlsruhe-Baden-Baden

Baden-Baden, Allemagne

latitude: 48-46-43N, longitude: 008-04-47E, altitude: 124 m

Observation

Le bulletin a été fait il y a 29 minutes, à 08:20 UTC
Vent 2 kt de direction variable
Température 17°C
Humidité 77%
Pression 1015 hPa
Visibilité 10 km ou plus
pas de nuages en-dessous de 1500 mètres et pas de cumulonimbus.

METAR: EDSB 140820Z VRB02KT CAVOK 17/13 Q1015

Heure: 10:49 (08:49 UTC)

Prévision

Le bulletin a été fait il y a 3 heures et 49 minutes, à 05:00 UTC
Prévision valable du 14 à 06 UTC au 15 à 06 UTC
Vent 3 kt de direction variable
Visibilité 10 km ou plus
pas de nuages en-dessous de 1500 mètres et pas de cumulonimbus.
Probabilité 30% :
Temporairement
du 15 à 00 UTC au 15 à 06 UTC
Visibilité: 2500 m
bancs de brouillard

TAF: EDSB 140500Z 1406/1506 VRB03KT CAVOK PROB30 TEMPO 1500/1506 2500 BCFG

Observations et prévisions météorologiques de plus de 4000 aéroports (messages METAR et TAF).

Les stations disponibles sont représentées par des disques jaunes et rouges sur la carte.

Passer la souris dessus pour voir le nom de la station.

Cliquer dessus pour voir les observations et prévisions météorologiques.

Pour changer de carte: cliquez sur les boutons verts avec une croix noire pour zoomer, sur le bouton vert avec un tiret pour effectuer un zoom arrière, ou sur les flèches vertes pour les cartes adjacentes.


METAR-TAF: